createdAt,value
2019-03-12T18:19:56.894Z,69.00
2019-03-12T18:22:29.667Z,72.50
2019-03-12T18:25:56.461Z,73.90
2019-03-12T18:28:29.579Z,74.70
2019-03-12T18:31:26.256Z,77.50
2019-03-12T18:33:52.751Z,79.30
2019-03-12T18:36:30.232Z,78.10
2019-03-12T18:39:06.159Z,79.40
2019-03-12T18:41:38.555Z,78.70
2019-03-12T18:44:10.099Z,79.20
2019-03-12T18:46:44.988Z,78.70
2019-03-12T18:49:13.385Z,79.40
2019-03-12T18:51:43.245Z,78.30
2019-03-12T18:54:09.583Z,79.80
2019-03-12T18:56:51.663Z,79.60
2019-03-12T18:59:28.928Z,79.20
2019-03-12T19:01:58.450Z,81.20
2019-03-12T19:04:31.109Z,82.30
2019-03-12T19:07:01.743Z,83.00
2019-03-12T19:09:28.313Z,84.90
2019-03-12T19:12:01.707Z,86.20
2019-03-12T19:14:35.255Z,86.30
2019-03-12T19:17:04.354Z,84.00
2019-03-12T19:19:34.054Z,84.30
2019-03-12T19:22:07.111Z,84.30
2019-03-12T19:24:34.470Z,84.60
2019-03-12T19:27:07.144Z,86.60
2019-03-12T19:29:38.364Z,85.60
2019-03-12T19:32:25.288Z,86.60
2019-03-12T19:35:30.066Z,87.10
2019-03-12T19:37:57.943Z,87.10
2019-03-12T19:40:59.699Z,87.20
2019-03-12T19:43:36.556Z,88.30
2019-03-12T19:46:18.779Z,88.70
2019-03-12T19:48:49.602Z,89.70
2019-03-12T19:51:24.102Z,89.50
2019-03-12T19:53:50.365Z,89.70
2019-03-12T19:56:16.804Z,89.60
2019-03-12T19:58:52.283Z,90.00
2019-03-12T20:01:19.021Z,89.60
2019-03-12T20:03:57.365Z,90.20
2019-03-12T20:06:48.777Z,88.80
2019-03-12T20:09:26.338Z,89.20
2019-03-12T20:11:56.416Z,88.70
2019-03-12T20:14:57.892Z,88.40
2019-03-12T20:18:01.767Z,88.90
2019-03-12T20:20:59.872Z,89.20
2019-03-12T20:24:02.187Z,89.60
2019-03-12T20:27:05.960Z,89.30
2019-03-12T20:30:18.994Z,89.30
2019-03-12T20:33:37.989Z,89.40
2019-03-12T20:36:33.980Z,89.40
2019-03-12T20:39:26.914Z,90.00
2019-03-12T20:42:32.941Z,90.20
2019-03-12T20:45:24.215Z,90.10
2019-03-12T20:48:21.912Z,90.10
2019-03-12T20:51:22.469Z,89.20
2019-03-12T20:54:08.312Z,89.40
2019-03-12T20:57:12.060Z,89.80
2019-03-12T20:59:58.880Z,89.70
2019-03-12T21:02:45.701Z,88.60
2019-03-12T21:05:49.458Z,88.90
2019-03-12T21:08:45.933Z,87.80
2019-03-12T21:11:35.613Z,87.50
2019-03-12T21:14:34.721Z,87.40
2019-03-12T21:17:13.167Z,86.80
2019-03-12T21:19:55.394Z,86.50
2019-03-12T21:22:40.268Z,86.60
2019-03-12T21:25:13.216Z,86.90
2019-03-12T21:28:05.718Z,87.00
2019-03-12T21:30:32.060Z,88.00
2019-03-12T21:33:14.755Z,86.30
2019-03-12T21:35:32.622Z,86.00
2019-03-12T21:37:58.895Z,85.50
2019-03-12T21:40:25.169Z,85.40
2019-03-12T21:42:51.600Z,85.40
2019-03-12T21:45:20.934Z,84.80
2019-03-12T21:47:47.231Z,84.90
2019-03-12T21:50:13.532Z,84.20
2019-03-12T21:52:39.798Z,85.00
2019-03-12T21:55:09.908Z,83.50
2019-03-12T21:57:39.437Z,83.70
2019-03-12T22:00:12.055Z,83.30
2019-03-12T22:02:38.334Z,83.40
2019-03-12T22:05:04.720Z,83.30
2019-03-12T22:07:31.007Z,83.40
2019-03-12T22:09:57.301Z,82.80
2019-03-12T22:12:23.583Z,83.70
2019-03-12T22:14:49.878Z,82.80
2019-03-12T22:17:19.197Z,83.50
2019-03-12T22:19:45.482Z,83.70
2019-03-12T22:22:13.727Z,84.40
2019-03-12T22:24:40.123Z,83.90
2019-03-12T22:27:06.407Z,83.70
2019-03-12T22:29:32.720Z,84.70
2019-03-12T22:31:59.094Z,84.90
2019-03-12T22:34:25.371Z,84.70
2019-03-12T22:36:51.697Z,84.90
2019-03-12T22:39:18.003Z,85.60
2019-03-12T22:41:44.335Z,85.90
2019-03-12T22:44:10.705Z,85.20
2019-03-12T22:46:37.019Z,85.80
2019-03-12T22:49:03.346Z,85.30
2019-03-12T22:51:29.619Z,85.80
2019-03-12T22:53:55.907Z,86.50
2019-03-12T22:56:22.292Z,86.10
2019-03-12T22:58:48.589Z,85.60
2019-03-12T23:01:14.891Z,86.30
2019-03-12T23:03:41.214Z,87.10
2019-03-12T23:06:08.580Z,87.00
2019-03-12T23:08:34.893Z,87.60
2019-03-12T23:11:01.211Z,86.70
2019-03-12T23:13:30.546Z,87.20
2019-03-12T23:15:56.841Z,87.40
2019-03-12T23:18:23.127Z,87.40
2019-03-12T23:20:49.461Z,87.90
2019-03-12T23:23:15.818Z,87.40
2019-03-12T23:25:42.199Z,87.20
2019-03-12T23:28:08.493Z,87.50
2019-03-12T23:30:34.799Z,87.60
2019-03-12T23:33:01.057Z,87.60
2019-03-12T23:35:27.331Z,87.90
2019-03-12T23:37:53.759Z,88.20
2019-03-12T23:40:20.041Z,87.80
2019-03-12T23:42:46.361Z,88.10
2019-03-12T23:45:15.147Z,87.90
2019-03-12T23:47:41.488Z,88.00
2019-03-12T23:50:12.102Z,88.70
2019-03-12T23:52:38.418Z,88.60
2019-03-12T23:55:07.097Z,88.90
2019-03-12T23:57:33.421Z,88.90
2019-03-12T23:59:59.741Z,89.00
